Time;durP1;ratioP1;P1;durP2;ratioP2;P2;SDS_P1;SDS_P2;PMS_P1;PMS_P2;Temp;Humidity;BMP_temperature;BMP_pressure;BME280_temperature;BME280_humidity;BME280_pressure;Samples;Min_cycle;Max_cycle;Signal;HPM_P1;HPM_P2
2023/10/08 00:01:21;;;;;;;0.70;0.10;;;;;;;11.68;100.00;101371.03;6077128;28;20057;-65
2023/10/08 00:04:18;;;;;;;0.00;0.00;;;;;;;11.88;100.00;101374.56;6074375;28;20033;-65
2023/10/08 00:07:14;;;;;;;0.08;0.08;;;;;;;11.77;100.00;101364.91;6072663;28;20034;-65
2023/10/08 00:10:09;;;;;;;0.10;0.10;;;;;;;11.85;100.00;101394.28;6073778;28;20052;-66
2023/10/08 00:13:07;;;;;;;0.38;0.20;;;;;;;11.79;100.00;101410.78;6075157;28;20053;-65
2023/10/08 00:16:08;;;;;;;0.70;0.00;;;;;;;11.67;100.00;101408.34;6074979;28;20041;-65
2023/10/08 00:19:08;;;;;;;0.20;0.10;;;;;;;11.72;100.00;101425.59;6072892;28;20108;-66
2023/10/08 00:22:09;;;;;;;0.20;0.10;;;;;;;11.66;100.00;101420.78;6072038;28;20398;-66
2023/10/08 00:25:11;;;;;;;0.00;0.00;;;;;;;11.60;100.00;101399.25;6074070;28;20033;-66
2023/10/08 00:28:13;;;;;;;0.10;0.10;;;;;;;11.69;100.00;101401.09;6071260;28;20037;-66
2023/10/08 00:31:12;;;;;;;0.22;0.10;;;;;;;11.64;100.00;101409.44;6073287;28;20044;-66
2023/10/08 00:34:14;;;;;;;0.10;0.10;;;;;;;11.62;100.00;101416.72;6076675;28;20045;-66
2023/10/08 00:37:10;;;;;;;0.85;0.20;;;;;;;11.41;100.00;101426.59;6072573;28;20048;-66
2023/10/08 00:40:15;;;;;;;0.10;0.03;;;;;;;11.36;100.00;101439.38;6074424;28;20052;-66
2023/10/08 00:43:10;;;;;;;0.85;0.20;;;;;;;11.17;100.00;101439.31;6074889;28;20064;-66
2023/10/08 00:52:45;;;;;;;1.17;0.28;;;;;;;10.73;100.00;101472.28;6073168;28;20037;-66
2023/10/08 00:55:46;;;;;;;1.50;0.52;;;;;;;10.40;100.00;101505.09;6072468;28;20057;-65
2023/10/08 00:58:42;;;;;;;1.23;0.60;;;;;;;10.29;100.00;101510.41;6074127;28;20032;-65
2023/10/08 01:01:38;;;;;;;1.75;0.40;;;;;;;10.21;100.00;101518.16;6074954;28;20523;-64
2023/10/08 01:04:34;;;;;;;4.55;0.82;;;;;;;10.06;100.00;101519.34;6078990;28;20044;-64
2023/10/08 01:07:30;;;;;;;2.58;0.73;;;;;;;9.86;100.00;101538.66;6073940;28;20037;-65
2023/10/08 01:10:26;;;;;;;3.60;0.77;;;;;;;9.79;100.00;101540.06;6074525;28;20097;-64
2023/10/08 01:13:22;;;;;;;3.73;0.40;;;;;;;9.92;100.00;101554.88;6074507;28;20488;-64
2023/10/08 01:16:18;;;;;;;10.10;1.27;;;;;;;9.88;100.00;101560.56;6074512;28;20040;-64
2023/10/08 01:19:20;;;;;;;6.13;0.80;;;;;;;9.90;100.00;101563.91;6074020;28;20029;-64
2023/10/08 01:22:19;;;;;;;2.03;0.60;;;;;;;10.03;100.00;101564.63;6074659;28;20083;-64
2023/10/08 01:25:22;;;;;;;3.72;0.80;;;;;;;10.19;100.00;101575.75;6073843;28;20026;-64
2023/10/08 01:28:28;;;;;;;3.88;0.60;;;;;;;10.18;100.00;101581.16;6073162;28;20462;-64
2023/10/08 01:31:24;;;;;;;2.72;0.70;;;;;;;10.11;100.00;101580.75;6082667;28;20484;-64
2023/10/08 01:34:26;;;;;;;1.33;0.60;;;;;;;10.35;100.00;101584.16;6079625;28;20033;-64
2023/10/08 01:37:21;;;;;;;3.45;0.88;;;;;;;10.14;100.00;101576.09;6073859;28;20272;-64
2023/10/08 01:40:17;;;;;;;1.13;0.50;;;;;;;10.53;100.00;101577.38;6073260;28;20385;-64
2023/10/08 01:43:13;;;;;;;2.40;0.55;;;;;;;10.37;100.00;101589.31;6073385;28;20029;-64
2023/10/08 01:46:12;;;;;;;1.35;0.40;;;;;;;10.50;100.00;101593.53;6073921;28;20041;-64
2023/10/08 01:49:14;;;;;;;2.60;0.70;;;;;;;10.76;100.00;101589.56;6073608;28;20045;-64
2023/10/08 01:52:22;;;;;;;3.33;0.70;;;;;;;10.87;100.00;101594.00;6073202;28;20056;-64
2023/10/08 01:55:19;;;;;;;4.18;0.68;;;;;;;10.67;100.00;101593.00;6072828;28;20057;-64
2023/10/08 01:58:18;;;;;;;3.47;0.70;;;;;;;10.70;100.00;101598.06;6069055;28;20040;-64
2023/10/08 02:01:13;;;;;;;2.22;0.60;;;;;;;11.14;100.00;101598.88;6074474;28;20116;-64
2023/10/08 02:04:12;;;;;;;3.43;0.53;;;;;;;11.24;100.00;101591.81;6073345;28;20033;-64
2023/10/08 02:07:08;;;;;;;1.85;0.47;;;;;;;11.28;100.00;101585.25;6072326;28;20099;-64
2023/10/08 02:10:05;;;;;;;4.10;0.63;;;;;;;11.34;100.00;101603.31;6073122;28;20469;-64
2023/10/08 02:13:01;;;;;;;5.13;0.73;;;;;;;11.07;100.00;101589.72;6071527;28;20500;-64
2023/10/08 02:15:58;;;;;;;2.05;0.70;;;;;;;10.84;100.00;101593.44;6073163;28;20103;-64
2023/10/08 02:18:53;;;;;;;3.40;0.68;;;;;;;10.87;100.00;101588.69;6069882;28;20037;-64
2023/10/08 02:21:48;;;;;;;4.57;0.70;;;;;;;10.89;100.00;101601.84;6073457;28;20090;-64
2023/10/08 02:24:43;;;;;;;2.40;0.80;;;;;;;10.93;100.00;101606.78;6071995;28;20022;-64
2023/10/08 02:27:39;;;;;;;2.13;0.60;;;;;;;10.82;100.00;101619.25;6073534;28;20061;-64
2023/10/08 02:30:36;;;;;;;2.27;0.60;;;;;;;10.80;100.00;101621.16;6073219;28;20036;-63
2023/10/08 02:33:31;;;;;;;2.65;0.60;;;;;;;10.95;100.00;101614.63;6072453;28;20030;-64
2023/10/08 02:36:27;;;;;;;1.75;1.25;;;;;;;11.04;100.00;101620.00;6073010;28;20048;-64
2023/10/08 02:39:25;;;;;;;3.43;0.63;;;;;;;10.89;100.00;101607.16;6075729;28;20018;-64
2023/10/08 02:42:22;;;;;;;4.13;0.50;;;;;;;10.98;100.00;101609.06;6073114;28;20034;-64
2023/10/08 02:45:18;;;;;;;2.95;0.80;;;;;;;11.09;100.00;101585.09;6075641;28;20361;-64
2023/10/08 02:48:13;;;;;;;1.98;0.63;;;;;;;11.14;100.00;101590.91;6069990;28;20028;-64
2023/10/08 02:51:14;;;;;;;3.73;1.00;;;;;;;10.82;100.00;101590.06;6071961;28;20025;-64
2023/10/08 02:54:17;;;;;;;1.73;0.55;;;;;;;10.80;100.00;101584.03;6074802;28;20303;-64
2023/10/08 02:57:16;;;;;;;1.65;0.60;;;;;;;10.72;100.00;101572.25;6073942;28;20167;-64
2023/10/08 03:00:13;;;;;;;4.65;1.05;;;;;;;10.68;100.00;101586.72;6077245;28;20033;-64
2023/10/08 03:03:18;;;;;;;6.65;1.15;;;;;;;10.73;100.00;101600.44;6078292;28;20022;-63
2023/10/08 03:06:14;;;;;;;2.63;0.98;;;;;;;10.66;100.00;101604.56;6076570;28;20038;-63
2023/10/08 03:09:10;;;;;;;4.95;1.15;;;;;;;10.68;100.00;101610.59;6077399;28;20060;-63
2023/10/08 03:12:08;;;;;;;2.40;0.60;;;;;;;10.77;100.00;101627.56;6076271;28;20381;-64
2023/10/08 03:15:14;;;;;;;2.75;0.52;;;;;;;10.71;100.00;101639.53;6079069;28;20082;-63
2023/10/08 03:18:10;;;;;;;2.20;0.60;;;;;;;10.74;100.00;101631.31;6077134;28;20047;-64
2023/10/08 03:21:19;;;;;;;3.58;0.60;;;;;;;10.74;100.00;101618.06;6076096;28;20026;-63
2023/10/08 03:24:37;;;;;;;2.90;0.57;;;;;;;10.84;100.00;101617.31;6073953;28;20163;-64
2023/10/08 03:27:41;;;;;;;4.68;0.68;;;;;;;10.69;100.00;101620.25;6078508;28;20117;-64
2023/10/08 03:31:03;;;;;;;2.53;0.65;;;;;;;10.74;100.00;101630.47;6076445;28;20099;-63
2023/10/08 03:33:55;;;;;;;1.35;0.73;;;;;;;10.87;100.00;101643.59;6076131;28;20499;-64
2023/10/08 03:36:51;;;;;;;2.08;0.63;;;;;;;10.80;100.00;101653.00;6077194;28;20033;-63
2023/10/08 03:40:00;;;;;;;4.20;0.77;;;;;;;10.92;100.00;101666.13;6075762;28;20056;-63
2023/10/08 03:42:56;;;;;;;2.85;0.57;;;;;;;10.83;100.00;101658.06;6075077;28;20041;-63
2023/10/08 03:45:53;;;;;;;2.03;0.60;;;;;;;10.88;100.00;101663.84;6077066;28;20040;-63
2023/10/08 03:48:51;;;;;;;2.45;0.40;;;;;;;10.71;100.00;101660.75;6075919;28;20104;-63
2023/10/08 03:51:48;;;;;;;2.17;0.60;;;;;;;10.58;100.00;101645.94;6076368;28;20622;-63
2023/10/08 03:54:48;;;;;;;1.80;0.60;;;;;;;10.73;100.00;101656.16;6076209;28;20033;-63
2023/10/08 03:57:44;;;;;;;1.83;0.73;;;;;;;10.73;100.00;101664.09;6064165;28;20416;-63
2023/10/08 04:00:42;;;;;;;3.95;0.65;;;;;;;10.70;100.00;101668.84;6081156;28;20115;-63
2023/10/08 04:03:57;;;;;;;2.30;0.63;;;;;;;10.63;100.00;101673.78;6079131;28;20864;-63
2023/10/08 04:06:54;;;;;;;3.25;0.85;;;;;;;10.50;100.00;101670.44;6078242;28;20037;-63
2023/10/08 04:09:55;;;;;;;6.82;0.70;;;;;;;10.64;100.00;101685.25;6066660;28;20045;-63
2023/10/08 04:12:52;;;;;;;3.70;0.60;;;;;;;10.63;100.00;101668.47;6075861;28;20041;-63
2023/10/08 04:15:48;;;;;;;3.17;0.60;;;;;;;10.58;100.00;101680.41;6076259;28;20452;-63
2023/10/08 04:18:43;;;;;;;2.27;0.60;;;;;;;10.55;100.00;101678.00;6074399;28;20030;-63
2023/10/08 04:21:42;;;;;;;3.58;0.57;;;;;;;10.71;100.00;101694.38;6076035;28;20032;-63
2023/10/08 04:24:43;;;;;;;3.97;0.50;;;;;;;10.69;100.00;101699.81;6075150;28;20045;-63
2023/10/08 04:27:39;;;;;;;3.60;0.80;;;;;;;10.61;100.00;101712.00;6078425;28;20125;-63
2023/10/08 04:30:36;;;;;;;3.55;1.23;;;;;;;10.51;100.00;101717.22;6081256;28;20029;-63
2023/10/08 04:33:33;;;;;;;3.17;0.73;;;;;;;10.50;100.00;101706.69;6081268;28;20056;-63
2023/10/08 04:36:29;;;;;;;1.60;0.50;;;;;;;10.71;100.00;101719.09;6081617;28;20057;-63
2023/10/08 04:39:32;;;;;;;4.30;0.60;;;;;;;10.45;100.00;101704.41;6078285;28;20082;-63
2023/10/08 04:42:27;;;;;;;4.03;0.60;;;;;;;10.49;100.00;101729.72;6075848;28;20063;-63
2023/10/08 04:45:26;;;;;;;3.10;0.60;;;;;;;10.52;100.00;101710.06;6075482;28;20469;-63
2023/10/08 04:48:21;;;;;;;4.75;0.90;;;;;;;10.48;100.00;101712.16;6074038;28;20029;-63
2023/10/08 04:51:17;;;;;;;4.80;0.67;;;;;;;10.56;100.00;101709.72;6075062;28;20481;-63
2023/10/08 04:54:16;;;;;;;1.88;0.63;;;;;;;10.44;100.00;101710.69;6083246;28;20110;-63
2023/10/08 04:57:15;;;;;;;5.53;0.50;;;;;;;10.31;100.00;101725.88;6074480;28;20033;-63
2023/10/08 05:00:14;;;;;;;4.43;0.73;;;;;;;10.18;100.00;101735.75;6074364;28;20407;-63
2023/10/08 05:03:14;;;;;;;2.78;0.50;;;;;;;10.43;100.00;101756.75;6076190;28;20467;-63
2023/10/08 05:06:16;;;;;;;1.63;0.60;;;;;;;10.32;100.00;101748.78;6074593;28;20485;-63
2023/10/08 05:09:22;;;;;;;3.63;0.70;;;;;;;10.42;100.00;101756.84;6074542;28;20064;-63
2023/10/08 05:15:36;;;;;;;3.03;0.50;;;;;;;10.49;100.00;101745.63;6074524;28;20392;-63
2023/10/08 05:21:51;;;;;;;1.88;0.70;;;;;;;10.43;100.00;101747.94;6073127;28;20485;-63
2023/10/08 05:25:11;;;;;;;4.30;0.82;;;;;;;10.43;100.00;101751.44;6075097;28;20037;-63
2023/10/08 05:28:09;;;;;;;3.40;0.77;;;;;;;10.48;100.00;101757.22;6075278;28;20397;-63
2023/10/08 05:34:18;;;;;;;3.35;1.00;;;;;;;10.70;100.00;101770.50;6074596;28;20091;-64
2023/10/08 05:37:31;;;;;;;3.75;0.68;;;;;;;10.63;100.00;101779.03;6066475;28;20087;-63
2023/10/08 05:46:46;;;;;;;2.63;0.80;;;;;;;10.70;100.00;101775.81;6073229;28;20037;-63
2023/10/08 05:49:54;;;;;;;1.25;0.70;;;;;;;10.57;100.00;101774.22;6072723;28;20113;-63
2023/10/08 05:56:01;;;;;;;1.63;0.68;;;;;;;10.57;100.00;101783.00;6073535;28;20033;-64
2023/10/08 05:59:17;;;;;;;4.15;0.70;;;;;;;10.63;100.00;101803.75;6073113;28;20038;-64
2023/10/08 06:05:23;;;;;;;2.95;0.70;;;;;;;10.73;100.00;101810.03;6070632;28;20037;-63
2023/10/08 06:08:38;;;;;;;2.67;0.73;;;;;;;10.60;100.00;101788.06;6077605;28;20029;-63
2023/10/08 06:14:52;;;;;;;3.30;0.80;;;;;;;10.75;100.00;101839.09;6073521;28;20053;-63
2023/10/08 06:18:04;;;;;;;2.85;1.15;;;;;;;10.73;100.00;101811.84;6073613;28;20468;-63
2023/10/08 06:21:11;;;;;;;5.35;1.02;;;;;;;10.80;100.00;101831.63;6065528;28;20050;-64
2023/10/08 06:24:09;;;;;;;3.25;0.70;;;;;;;10.83;100.00;101842.00;6071950;28;20037;-63
2023/10/08 06:27:04;;;;;;;4.97;1.08;;;;;;;10.75;100.00;101824.03;6073166;28;20056;-63
2023/10/08 06:29:59;;;;;;;5.78;1.20;;;;;;;10.91;100.00;101820.16;6072449;28;20033;-63
2023/10/08 06:32:56;;;;;;;5.00;1.00;;;;;;;10.93;100.00;101826.19;6071920;28;20099;-63
2023/10/08 06:36:01;;;;;;;4.93;1.10;;;;;;;11.01;100.00;101848.50;6073039;28;20390;-63
2023/10/08 06:38:59;;;;;;;4.88;1.35;;;;;;;11.07;100.00;101852.50;6071932;28;20048;-63
2023/10/08 06:41:58;;;;;;;3.85;0.85;;;;;;;11.14;100.00;101851.06;6072961;28;20175;-64
2023/10/08 06:44:58;;;;;;;4.05;0.90;;;;;;;11.05;100.00;101857.09;6073085;28;20041;-63
2023/10/08 06:47:53;;;;;;;4.45;1.10;;;;;;;11.14;100.00;101872.28;6072399;28;20091;-64
2023/10/08 06:50:49;;;;;;;5.13;1.50;;;;;;;11.25;100.00;101872.28;6072571;28;20038;-63
2023/10/08 06:53:46;;;;;;;2.85;0.98;;;;;;;11.18;100.00;101871.06;6072866;28;20103;-64
2023/10/08 06:56:51;;;;;;;3.85;0.90;;;;;;;11.34;100.00;101882.16;6071931;28;20076;-63
2023/10/08 06:59:50;;;;;;;4.70;1.00;;;;;;;11.28;100.00;101880.84;6072790;28;20034;-64
2023/10/08 07:02:47;;;;;;;4.00;0.90;;;;;;;11.32;100.00;101900.03;6080101;28;20045;-63
2023/10/08 07:05:59;;;;;;;3.92;1.08;;;;;;;11.37;100.00;101905.81;6072468;28;20079;-63
2023/10/08 07:08:55;;;;;;;2.75;0.85;;;;;;;11.36;100.00;101886.38;6072420;28;20033;-63
2023/10/08 07:11:54;;;;;;;4.07;0.85;;;;;;;11.51;100.00;101897.59;6070556;28;20045;-63
2023/10/08 07:14:51;;;;;;;3.60;1.02;;;;;;;11.45;100.00;101923.78;6072728;28;20022;-63
2023/10/08 07:17:51;;;;;;;2.75;1.08;;;;;;;11.47;100.00;101920.06;6072105;28;20072;-63
2023/10/08 07:20:53;;;;;;;4.85;1.30;;;;;;;11.50;100.00;101916.31;6069301;28;20044;-63
2023/10/08 07:23:56;;;;;;;6.13;1.50;;;;;;;11.54;100.00;101908.00;6070449;28;20052;-64
2023/10/08 07:26:51;;;;;;;7.10;1.52;;;;;;;11.49;100.00;101902.19;6071050;28;20112;-63
2023/10/08 07:29:48;;;;;;;3.28;1.23;;;;;;;11.62;100.00;101908.22;6070557;28;20036;-63
2023/10/08 07:32:44;;;;;;;2.42;0.80;;;;;;;11.84;100.00;101918.84;6071510;28;20132;-64
2023/10/08 07:35:41;;;;;;;2.95;0.75;;;;;;;11.94;100.00;101930.41;6076053;28;20664;-64
2023/10/08 07:38:37;;;;;;;3.30;1.08;;;;;;;11.98;100.00;101908.88;6072366;28;20033;-64
2023/10/08 07:41:33;;;;;;;6.13;1.40;;;;;;;12.18;100.00;101932.84;6071301;28;20089;-63
2023/10/08 07:44:30;;;;;;;3.30;0.80;;;;;;;12.30;100.00;101923.88;6073976;28;20021;-64
2023/10/08 07:47:27;;;;;;;2.28;0.88;;;;;;;12.47;100.00;101923.28;6073973;28;20057;-63
2023/10/08 07:50:24;;;;;;;2.80;1.10;;;;;;;12.39;100.00;101919.63;6075268;28;20473;-63
2023/10/08 07:53:19;;;;;;;5.10;1.15;;;;;;;12.57;100.00;101923.38;6079004;28;20056;-64
2023/10/08 07:56:15;;;;;;;2.95;0.80;;;;;;;12.71;100.00;101920.41;6083831;28;20036;-65
2023/10/08 07:59:14;;;;;;;3.87;0.80;;;;;;;12.70;100.00;101925.84;6069853;28;20053;-64
2023/10/08 08:02:11;;;;;;;4.43;1.00;;;;;;;12.39;100.00;101903.66;6077763;28;20040;-64
2023/10/08 08:05:06;;;;;;;3.13;0.85;;;;;;;12.83;100.00;101930.00;6069779;28;20131;-65
2023/10/08 08:08:05;;;;;;;5.70;1.05;;;;;;;12.96;100.00;101927.97;6078806;28;20465;-64
2023/10/08 08:11:06;;;;;;;7.20;1.00;;;;;;;12.90;100.00;101954.28;6081774;28;20112;-65
2023/10/08 08:14:07;;;;;;;4.68;0.63;;;;;;;12.93;100.00;101949.56;6074085;28;20037;-65
2023/10/08 08:17:13;;;;;;;5.30;0.85;;;;;;;13.22;100.00;101956.88;6069815;28;20037;-65
2023/10/08 08:20:17;;;;;;;5.00;1.20;;;;;;;13.26;100.00;101950.31;6070795;28;20045;-65
2023/10/08 08:23:13;;;;;;;2.15;0.90;;;;;;;13.51;100.00;101963.16;6074759;28;20444;-64
2023/10/08 08:26:12;;;;;;;3.22;0.88;;;;;;;13.54;100.00;101958.44;6074128;28;20274;-65
2023/10/08 08:29:08;;;;;;;6.82;1.98;;;;;;;13.72;100.00;101967.47;6074286;28;20039;-64
2023/10/08 08:32:04;;;;;;;6.10;0.90;;;;;;;13.56;100.00;101971.63;6073679;28;20068;-65
2023/10/08 08:34:59;;;;;;;2.75;0.98;;;;;;;13.79;100.00;101975.78;6073854;28;20041;-65
2023/10/08 08:37:54;;;;;;;2.87;0.83;;;;;;;13.61;100.00;101970.25;6072848;28;20076;-65
2023/10/08 08:40:51;;;;;;;6.80;1.37;;;;;;;13.66;100.00;101972.50;6073955;28;20499;-65
2023/10/08 08:43:49;;;;;;;2.72;0.90;;;;;;;13.52;100.00;101979.06;6073865;28;20033;-65
2023/10/08 08:46:45;;;;;;;4.07;0.88;;;;;;;13.57;100.00;101983.97;6073354;28;20404;-65
2023/10/08 08:49:41;;;;;;;3.95;0.80;;;;;;;13.52;100.00;101987.03;6073003;28;20037;-65
2023/10/08 08:52:38;;;;;;;2.97;0.98;;;;;;;13.97;100.00;102003.47;6072653;28;20037;-65
2023/10/08 08:55:35;;;;;;;3.85;0.90;;;;;;;14.20;100.00;101998.75;6073785;28;20528;-65
2023/10/08 08:58:34;;;;;;;3.60;0.80;;;;;;;14.38;100.00;101986.44;6074538;28;20116;-66
2023/10/08 09:01:30;;;;;;;2.58;0.60;;;;;;;14.48;100.00;101998.00;6070013;28;20444;-65
2023/10/08 09:04:30;;;;;;;4.85;0.70;;;;;;;14.61;95.33;102003.03;6074473;28;20385;-65
2023/10/08 09:07:26;;;;;;;2.30;0.50;;;;;;;14.87;94.05;101988.97;6073561;28;20098;-66
2023/10/08 09:10:27;;;;;;;4.95;0.90;;;;;;;15.26;92.55;102003.09;6087685;28;20029;-65
2023/10/08 09:13:23;;;;;;;4.40;0.95;;;;;;;15.22;86.34;102009.72;6077548;28;20139;-65
2023/10/08 09:16:18;;;;;;;2.28;0.63;;;;;;;14.97;87.36;102021.03;6077894;28;20033;-65
2023/10/08 09:19:18;;;;;;;5.50;0.73;;;;;;;15.00;86.17;102027.91;6074115;28;20436;-65
2023/10/08 09:22:15;;;;;;;3.47;0.90;;;;;;;14.90;85.46;102043.94;6074607;28;20505;-65
2023/10/08 09:25:14;;;;;;;5.35;0.90;;;;;;;14.90;75.10;102043.94;6074130;28;20037;-65
2023/10/08 09:28:12;;;;;;;6.22;0.80;;;;;;;15.04;74.06;102038.16;6072354;28;20485;-65
2023/10/08 09:31:11;;;;;;;3.60;0.70;;;;;;;15.46;75.56;102033.34;6074505;28;20481;-65
2023/10/08 09:34:06;;;;;;;4.13;0.77;;;;;;;15.54;70.22;102041.47;6074493;28;20038;-65
2023/10/08 09:37:02;;;;;;;7.73;1.27;;;;;;;15.52;70.36;102038.06;6073947;28;20384;-65
2023/10/08 09:39:58;;;;;;;5.88;0.90;;;;;;;15.29;67.63;102037.56;6074047;28;20045;-65
2023/10/08 09:42:54;;;;;;;4.47;0.85;;;;;;;15.07;65.97;102045.03;6074257;28;20086;-65
2023/10/08 09:46:20;;;;;;;3.35;0.93;;;;;;;15.32;66.98;102034.59;6073796;28;20187;-64
2023/10/08 09:49:16;;;;;;;2.60;0.73;;;;;;;15.46;68.23;102031.47;6072111;28;20069;-65
2023/10/08 09:52:12;;;;;;;3.83;0.65;;;;;;;15.60;67.01;102040.06;6072406;28;20051;-65
2023/10/08 09:55:12;;;;;;;5.55;1.50;;;;;;;15.84;64.17;102037.69;6074247;28;20072;-65
2023/10/08 09:58:08;;;;;;;7.22;0.90;;;;;;;16.08;62.91;102041.53;6073496;28;20033;-64
2023/10/08 10:01:04;;;;;;;3.90;0.82;;;;;;;16.16;60.22;102027.38;6072950;28;20037;-64
2023/10/08 10:03:59;;;;;;;4.57;0.70;;;;;;;16.29;58.45;102035.91;6072783;28;20040;-65
2023/10/08 10:06:57;;;;;;;3.00;0.77;;;;;;;16.03;60.49;102019.69;6073782;28;20041;-65
2023/10/08 10:09:55;;;;;;;4.72;0.93;;;;;;;16.32;59.33;102016.84;6073034;28;20034;-64
2023/10/08 10:12:50;;;;;;;4.60;1.00;;;;;;;15.78;57.87;102023.09;6073529;28;20527;-64
2023/10/08 10:15:47;;;;;;;4.03;0.53;;;;;;;16.48;60.55;102037.59;6073522;28;20045;-64
2023/10/08 10:18:47;;;;;;;7.97;0.80;;;;;;;16.62;58.24;102034.44;6072461;28;20040;-64
2023/10/08 10:21:43;;;;;;;5.15;0.75;;;;;;;16.61;59.53;102043.44;6073801;28;20030;-65
2023/10/08 10:24:41;;;;;;;8.47;1.20;;;;;;;16.48;59.19;102046.47;6072044;28;20037;-65
2023/10/08 10:27:37;;;;;;;7.60;1.00;;;;;;;16.55;59.63;102042.22;6072729;28;20620;-65
2023/10/08 10:30:32;;;;;;;2.88;0.98;;;;;;;16.31;61.75;102041.09;6073142;28;20044;-65
2023/10/08 10:33:32;;;;;;;4.23;0.70;;;;;;;16.43;62.66;102030.03;6072992;28;20135;-64
2023/10/08 10:36:31;;;;;;;4.40;0.70;;;;;;;16.94;62.45;102045.44;6073269;28;20053;-65
2023/10/08 10:39:27;;;;;;;8.05;1.20;;;;;;;16.54;59.66;102032.53;6072136;28;20079;-64
2023/10/08 10:42:26;;;;;;;4.07;0.73;;;;;;;16.80;58.00;102037.09;6073440;28;20029;-64
2023/10/08 10:45:38;;;;;;;9.55;1.70;;;;;;;16.77;58.52;102061.53;6073199;28;20025;-64
2023/10/08 10:48:38;;;;;;;2.15;0.95;;;;;;;16.84;58.68;102070.63;6071795;28;20485;-65
2023/10/08 10:51:34;;;;;;;5.47;0.88;;;;;;;16.31;60.55;102068.72;6073093;28;20120;-65
2023/10/08 10:54:36;;;;;;;5.20;1.13;;;;;;;16.03;60.97;102054.47;6072811;28;20033;-65
2023/10/08 10:57:41;;;;;;;2.53;0.90;;;;;;;16.07;60.59;102066.59;6072958;28;20124;-64
2023/10/08 11:03:34;;;;;;;3.97;0.80;;;;;;;15.88;62.43;102076.53;6072745;28;20033;-65
2023/10/08 11:06:33;;;;;;;7.07;0.90;;;;;;;15.65;63.93;102053.81;6072561;28;20025;-64
2023/10/08 11:09:38;;;;;;;8.25;1.40;;;;;;;16.55;62.04;102063.66;6072573;28;20030;-65
2023/10/08 11:12:47;;;;;;;6.18;0.90;;;;;;;16.71;57.41;102057.63;6071661;28;20034;-65
2023/10/08 11:15:49;;;;;;;2.85;0.93;;;;;;;16.78;58.49;102049.81;6074729;28;20037;-65
2023/10/08 11:18:50;;;;;;;4.38;0.80;;;;;;;16.74;57.21;102040.41;6076896;28;20088;-65
2023/10/08 11:21:55;;;;;;;2.03;0.80;;;;;;;16.43;57.53;102056.81;6076997;28;20033;-65
2023/10/08 11:24:57;;;;;;;3.17;0.65;;;;;;;16.44;56.68;102052.28;6077128;28;20040;-65
2023/10/08 11:27:59;;;;;;;3.08;0.90;;;;;;;16.63;54.25;102039.63;6076633;28;20029;-64
2023/10/08 11:30:54;;;;;;;2.72;0.95;;;;;;;16.90;54.26;102053.94;6077110;28;20488;-64
2023/10/08 11:33:55;;;;;;;4.43;1.00;;;;;;;17.10;55.43;102028.63;6073603;28;20079;-65
2023/10/08 11:36:55;;;;;;;5.97;0.80;;;;;;;17.51;53.09;102025.22;6075622;28;20413;-65
2023/10/08 11:39:52;;;;;;;6.50;1.35;;;;;;;17.76;51.23;102023.56;6075937;28;20137;-65
2023/10/08 11:42:51;;;;;;;2.95;1.30;;;;;;;17.63;51.99;102034.72;6072042;28;20041;-64
2023/10/08 11:45:48;;;;;;;6.00;1.58;;;;;;;17.74;53.86;102061.28;6076645;28;20029;-65
2023/10/08 11:48:46;;;;;;;5.50;1.00;;;;;;;17.95;53.94;102065.41;6075772;28;20038;-65
2023/10/08 11:51:41;;;;;;;6.80;1.27;;;;;;;18.05;52.06;102048.16;6076133;28;20120;-65
2023/10/08 11:54:42;;;;;;;2.83;0.82;;;;;;;17.63;52.34;102015.97;6076597;28;20090;-65
2023/10/08 11:57:45;;;;;;;4.53;1.00;;;;;;;17.51;52.23;101992.19;6076426;28;20389;-65
2023/10/08 12:00:44;;;;;;;7.22;0.90;;;;;;;17.03;52.71;102000.78;6076245;28;20117;-64
2023/10/08 12:03:39;;;;;;;4.95;1.00;;;;;;;16.48;55.00;102022.38;6076619;28;20033;-65
2023/10/08 12:06:35;;;;;;;6.47;1.03;;;;;;;16.55;55.33;102044.91;6076353;28;20102;-65
2023/10/08 12:09:30;;;;;;;4.53;0.80;;;;;;;16.32;56.86;102038.28;6075379;28;20029;-64
2023/10/08 12:12:27;;;;;;;5.93;0.90;;;;;;;16.04;57.67;102045.47;6076242;28;20380;-65
2023/10/08 12:15:26;;;;;;;3.40;0.77;;;;;;;16.12;56.31;102042.03;6076100;28;20025;-64
2023/10/08 12:18:24;;;;;;;3.92;1.08;;;;;;;16.41;56.50;102041.88;6075432;28;20095;-65
2023/10/08 12:21:21;;;;;;;5.72;0.88;;;;;;;16.72;55.78;102032.50;6076260;28;20116;-64
2023/10/08 12:24:17;;;;;;;4.10;1.13;;;;;;;16.90;56.13;102048.59;6075705;28;20411;-64
2023/10/08 12:27:12;;;;;;;4.82;1.40;;;;;;;17.23;50.82;102045.16;6075291;28;20037;-64
2023/10/08 12:30:10;;;;;;;4.95;0.98;;;;;;;16.44;52.00;102020.16;6075219;28;20504;-65
2023/10/08 12:33:06;;;;;;;4.85;0.82;;;;;;;15.79;54.47;102029.28;6076271;28;20072;-64
2023/10/08 12:36:11;;;;;;;9.85;1.13;;;;;;;16.23;57.00;102012.41;6075516;28;20472;-64
2023/10/08 12:39:14;;;;;;;3.83;0.93;;;;;;;16.11;57.23;102012.78;6075458;28;20080;-64
2023/10/08 12:42:09;;;;;;;3.55;0.98;;;;;;;16.00;59.04;102003.13;6076118;28;20030;-65
2023/10/08 12:45:12;;;;;;;4.80;0.80;;;;;;;16.12;56.57;102015.28;6075291;28;20045;-64
2023/10/08 12:48:08;;;;;;;5.20;0.75;;;;;;;16.34;54.05;101993.44;6075333;28;20032;-65
2023/10/08 12:51:06;;;;;;;5.63;1.20;;;;;;;16.44;53.21;101998.75;6074557;28;20055;-64
2023/10/08 12:54:10;;;;;;;2.67;0.73;;;;;;;16.71;55.17;102000.53;6075166;28;20033;-65
2023/10/08 12:57:08;;;;;;;4.63;1.10;;;;;;;16.88;53.88;101997.81;6073846;28;20504;-65
2023/10/08 13:00:04;;;;;;;1.85;0.80;;;;;;;17.08;52.63;101990.44;6074914;28;20029;-65
2023/10/08 13:03:05;;;;;;;3.83;1.17;;;;;;;16.73;53.77;101983.28;6075228;28;20040;-64
2023/10/08 13:06:06;;;;;;;8.02;1.13;;;;;;;16.80;55.26;101956.72;6075137;28;20450;-64
2023/10/08 13:09:05;;;;;;;3.38;1.05;;;;;;;16.50;54.99;101940.03;6074726;28;20377;-65
2023/10/08 13:12:04;;;;;;;4.03;0.80;;;;;;;16.11;57.26;101938.69;6074825;28;20029;-64
2023/10/08 13:15:05;;;;;;;2.28;0.60;;;;;;;16.29;54.49;101947.53;6075039;28;20052;-64
2023/10/08 13:18:03;;;;;;;5.25;0.98;;;;;;;16.20;53.36;101943.09;6074296;28;20029;-64
2023/10/08 13:20:58;;;;;;;2.05;0.75;;;;;;;16.48;52.99;101946.53;6074282;28;20481;-65
2023/10/08 13:23:57;;;;;;;3.85;1.10;;;;;;;16.25;54.68;101964.91;6074438;28;20039;-65
2023/10/08 13:26:52;;;;;;;3.95;0.90;;;;;;;16.24;53.60;101965.06;6074112;28;20037;-64
2023/10/08 13:29:47;;;;;;;5.37;1.17;;;;;;;16.01;55.95;101964.63;6074429;28;20076;-65
2023/10/08 13:32:43;;;;;;;4.67;1.00;;;;;;;15.85;56.37;101967.97;6074289;28;20272;-65
2023/10/08 13:35:38;;;;;;;5.20;1.42;;;;;;;15.89;57.66;101965.84;6074169;28;20503;-65
2023/10/08 13:38:37;;;;;;;3.65;0.90;;;;;;;15.87;58.54;101970.53;6072625;28;20040;-66
2023/10/08 13:41:34;;;;;;;4.35;0.93;;;;;;;15.64;58.21;101974.56;6074296;28;20098;-64
2023/10/08 13:44:30;;;;;;;4.80;1.08;;;;;;;15.91;58.99;101982.59;6074066;28;20025;-65
2023/10/08 13:47:28;;;;;;;6.75;1.10;;;;;;;15.92;57.87;101978.94;6073557;28;20582;-64
2023/10/08 13:50:23;;;;;;;5.72;1.00;;;;;;;16.01;57.16;101981.53;6066283;28;20039;-65
2023/10/08 13:53:20;;;;;;;6.47;0.80;;;;;;;15.79;59.27;101984.63;6073865;28;20401;-65
2023/10/08 13:56:18;;;;;;;7.38;1.10;;;;;;;15.93;58.62;101967.22;6073794;28;20104;-65
2023/10/08 13:59:14;;;;;;;6.47;2.03;;;;;;;16.09;58.67;101970.06;6073295;28;20037;-65
2023/10/08 14:02:15;;;;;;;6.22;1.02;;;;;;;15.85;61.01;101965.31;6073435;28;20036;-65
2023/10/08 14:05:15;;;;;;;11.13;2.75;;;;;;;15.93;60.08;101956.53;6073917;28;20500;-65
2023/10/08 14:08:15;;;;;;;2.70;0.88;;;;;;;15.89;59.70;101968.53;6072737;28;20036;-65
2023/10/08 14:11:12;;;;;;;7.80;1.05;;;;;;;16.01;59.73;101967.31;6072491;28;20132;-64
2023/10/08 14:14:10;;;;;;;5.10;0.80;;;;;;;15.77;62.38;101957.19;6071759;28;20083;-64
2023/10/08 14:17:06;;;;;;;5.15;0.85;;;;;;;15.65;61.59;101952.19;6073145;28;20436;-64
2023/10/08 14:20:07;;;;;;;1.73;0.65;;;;;;;15.55;61.41;101954.06;6072932;28;20056;-64